Time;durP1;ratioP1;P1;durP2;ratioP2;P2;SDS_P1;SDS_P2;PMS_P1;PMS_P2;Temp;Humidity;BMP_temperature;BMP_pressure;BME280_temperature;BME280_humidity;BME280_pressure;Samples;Min_cycle;Max_cycle;Signal;HPM_P1;HPM_P2
2023/02/07 00:04:43;;;;;;;32.80;16.40;;;;;;;-1.75;81.22;102987.66;10217881;29;20079;-78
2023/02/07 00:09:45;;;;;;;32.00;15.50;;;;;;;-1.70;81.33;102987.69;10235286;28;20039;-79
2023/02/07 00:14:48;;;;;;;28.15;15.02;;;;;;;-1.69;81.14;102971.91;10232991;29;20079;-78
2023/02/07 00:19:52;;;;;;;27.67;15.40;;;;;;;-1.73;81.49;102956.00;10219978;28;20135;-77
2023/02/07 00:24:55;;;;;;;28.38;16.05;;;;;;;-1.75;81.10;102977.09;10212181;29;20467;-77
2023/02/07 00:29:58;;;;;;;27.67;14.10;;;;;;;-1.79;81.63;102929.59;10221993;29;20212;-77
2023/02/07 00:35:02;;;;;;;34.10;15.38;;;;;;;-1.92;80.91;102926.84;10231166;29;20115;-77
2023/02/07 00:40:06;;;;;;;30.33;14.32;;;;;;;-1.94;81.44;102933.84;10223677;29;20494;-77
2023/02/07 00:45:09;;;;;;;31.50;15.38;;;;;;;-1.94;81.52;102907.50;10217786;29;20075;-77
2023/02/07 00:50:14;;;;;;;29.60;15.40;;;;;;;-1.97;80.76;102903.94;10222273;29;20040;-76
2023/02/07 00:55:17;;;;;;;27.40;15.45;;;;;;;-2.00;80.85;102902.16;10187323;29;20562;-77
2023/02/07 01:00:21;;;;;;;30.13;16.42;;;;;;;-2.07;80.56;102898.56;10204186;29;20099;-77
2023/02/07 01:05:25;;;;;;;28.67;15.77;;;;;;;-2.08;81.16;102890.66;10216975;29;20143;-78
2023/02/07 01:10:28;;;;;;;31.25;15.52;;;;;;;-2.02;81.07;102916.19;10227980;29;20431;-77
2023/02/07 01:15:31;;;;;;;33.88;16.52;;;;;;;-2.07;81.00;102908.22;10229604;29;20055;-78
2023/02/07 01:20:35;;;;;;;35.38;16.88;;;;;;;-2.07;81.43;102917.00;10229980;28;20518;-79
2023/02/07 01:25:40;;;;;;;26.65;15.15;;;;;;;-2.11;81.04;102923.09;10222468;29;20051;-78
2023/02/07 01:30:44;;;;;;;34.38;16.05;;;;;;;-2.11;81.43;102927.50;10240348;29;20043;-79
2023/02/07 01:35:48;;;;;;;29.10;15.90;;;;;;;-2.15;81.71;102931.81;10243758;29;20058;-79
2023/02/07 01:40:51;;;;;;;24.10;14.32;;;;;;;-2.16;81.36;102940.59;10241380;29;20715;-78
2023/02/07 01:45:54;;;;;;;26.85;13.65;;;;;;;-2.27;81.11;102936.94;10225449;29;20082;-78
2023/02/07 01:51:04;;;;;;;25.58;13.55;;;;;;;-2.27;81.09;102926.41;10228908;29;20055;-77
2023/02/07 01:56:10;;;;;;;30.00;16.48;;;;;;;-2.19;81.64;102911.59;10202283;29;20040;-76
2023/02/07 02:01:27;;;;;;;32.42;16.10;;;;;;;-2.16;81.64;102911.63;10224149;29;20134;-76
2023/02/07 02:06:33;;;;;;;30.63;16.35;;;;;;;-2.12;81.98;102917.81;10229475;29;20047;-77
2023/02/07 02:12:01;;;;;;;27.00;14.52;;;;;;;-2.14;81.35;102909.00;10212386;29;20071;-77
2023/02/07 02:17:13;;;;;;;28.95;15.52;;;;;;;-2.14;81.40;102923.06;10205906;29;20043;-77
2023/02/07 02:22:53;;;;;;;28.70;14.88;;;;;;;-2.22;81.33;102916.81;10216839;29;20070;-76
2023/02/07 02:28:38;;;;;;;25.45;15.30;;;;;;;-2.26;81.61;102906.22;10203576;29;20427;-78
2023/02/07 02:33:48;;;;;;;29.63;15.35;;;;;;;-2.40;81.36;102911.31;10188825;29;20083;-76
2023/02/07 02:39:00;;;;;;;28.20;15.15;;;;;;;-2.47;81.57;102919.97;10211702;29;20040;-76
2023/02/07 02:44:09;;;;;;;25.98;13.75;;;;;;;-2.56;81.66;102924.25;10214675;29;20071;-76
2023/02/07 02:49:15;;;;;;;29.55;15.10;;;;;;;-2.22;81.68;102914.19;10215888;29;20470;-75
2023/02/07 02:54:28;;;;;;;29.75;14.82;;;;;;;-2.40;80.96;102911.31;10197611;29;20131;-76
2023/02/07 02:59:48;;;;;;;30.77;14.93;;;;;;;-2.58;81.30;102915.47;10188245;29;20048;-74
2023/02/07 03:05:09;;;;;;;32.47;15.50;;;;;;;-2.73;80.98;102915.25;10207821;29;20050;-75
2023/02/07 03:10:19;;;;;;;29.25;14.88;;;;;;;-2.90;81.02;102929.91;10195232;29;20068;-75
2023/02/07 03:15:34;;;;;;;31.83;15.52;;;;;;;-2.92;80.68;102924.59;10203530;29;20044;-75
2023/02/07 03:20:46;;;;;;;28.25;15.57;;;;;;;-2.94;80.74;102926.31;10195920;29;20043;-75
2023/02/07 03:25:52;;;;;;;33.13;16.70;;;;;;;-2.94;80.75;102923.69;10208199;29;20071;-76
2023/02/07 03:30:57;;;;;;;28.85;15.30;;;;;;;-2.84;80.88;102903.69;10201604;29;20091;-75
2023/02/07 03:36:08;;;;;;;28.33;15.10;;;;;;;-2.78;80.42;102906.41;10197961;29;20057;-75
2023/02/07 03:41:16;;;;;;;29.23;14.37;;;;;;;-2.80;80.12;102895.88;10211860;28;20126;-77
2023/02/07 03:46:19;;;;;;;34.60;15.90;;;;;;;-2.89;80.43;102910.63;10248482;28;20053;-77
2023/02/07 03:51:23;;;;;;;32.53;17.45;;;;;;;-2.89;80.09;102898.34;10225119;29;20047;-77
2023/02/07 03:56:26;;;;;;;30.15;17.17;;;;;;;-2.71;80.42;102892.47;10227236;29;20078;-77
2023/02/07 04:01:29;;;;;;;37.30;16.02;;;;;;;-2.57;80.42;102874.25;10240865;28;20142;-77
2023/02/07 04:06:33;;;;;;;35.42;15.48;;;;;;;-2.62;79.84;102868.91;10232991;29;20137;-77
2023/02/07 04:11:36;;;;;;;28.95;15.27;;;;;;;-2.56;80.12;102868.09;10212458;29;20120;-77
2023/02/07 04:16:39;;;;;;;22.70;14.02;;;;;;;-2.54;80.35;102872.53;10226241;29;20490;-77
2023/02/07 04:21:43;;;;;;;25.63;14.05;;;;;;;-2.56;79.83;102889.16;10226156;28;20079;-77
2023/02/07 04:26:46;;;;;;;24.60;13.60;;;;;;;-2.56;79.85;102894.41;10219502;29;20138;-77
2023/02/07 04:31:49;;;;;;;24.13;14.23;;;;;;;-2.49;80.33;102890.13;10213090;29;20063;-77
2023/02/07 04:36:53;;;;;;;24.25;12.57;;;;;;;-2.51;80.09;102893.63;10214982;29;20582;-75
2023/02/07 04:41:56;;;;;;;26.08;12.60;;;;;;;-2.73;79.16;102891.56;10194746;29;20158;-76
2023/02/07 04:46:59;;;;;;;24.25;13.10;;;;;;;-3.46;79.03;102891.28;10194604;29;20068;-76
2023/02/07 04:52:03;;;;;;;27.75;14.77;;;;;;;-3.33;79.21;102885.38;10195900;29;20060;-75
2023/02/07 04:57:06;;;;;;;26.83;14.23;;;;;;;-3.20;79.15;102887.34;10215717;29;20466;-76
2023/02/07 05:02:09;;;;;;;23.83;14.10;;;;;;;-3.12;79.37;102874.31;10234582;29;20126;-77
2023/02/07 05:07:13;;;;;;;26.95;13.55;;;;;;;-3.07;79.18;102883.19;10234771;28;20549;-77
2023/02/07 05:12:16;;;;;;;29.33;13.43;;;;;;;-3.12;78.42;102879.59;10226536;28;20229;-77
2023/02/07 05:17:18;;;;;;;25.08;12.77;;;;;;;-3.05;79.13;102881.44;10232095;29;20074;-77
2023/02/07 05:22:23;;;;;;;23.33;13.30;;;;;;;-3.01;79.01;102879.75;10236528;29;20083;-77
2023/02/07 05:27:26;;;;;;;22.20;12.32;;;;;;;-2.92;78.86;102876.38;10226940;29;20074;-76
2023/02/07 05:37:50;;;;;;;18.27;11.40;;;;;;;-2.76;78.57;102896.78;10224017;29;20578;-77
2023/02/07 05:42:54;;;;;;;19.20;10.30;;;;;;;-2.79;78.68;102883.59;10234426;29;20082;-76
2023/02/07 05:47:57;;;;;;;22.42;11.73;;;;;;;-2.81;78.37;102899.34;10236975;29;20422;-77
2023/02/07 05:53:01;;;;;;;20.95;12.18;;;;;;;-2.82;78.30;102910.72;10221229;29;20503;-76
2023/02/07 05:58:05;;;;;;;17.67;11.05;;;;;;;-2.83;78.84;102918.59;10246939;29;20112;-76
2023/02/07 06:03:07;;;;;;;20.63;11.48;;;;;;;-2.82;78.88;102910.72;10249247;29;20130;-78
2023/02/07 06:08:12;;;;;;;17.33;10.57;;;;;;;-2.86;79.07;102922.06;10214311;29;20094;-77
2023/02/07 06:13:14;;;;;;;21.88;11.60;;;;;;;-2.91;79.16;102926.34;10227043;29;20071;-77
2023/02/07 06:18:17;;;;;;;22.80;12.23;;;;;;;-2.95;79.11;102927.19;10222057;29;20126;-75
2023/02/07 06:23:21;;;;;;;23.67;12.55;;;;;;;-3.01;79.01;102927.97;10200862;28;20510;-76
2023/02/07 06:28:24;;;;;;;27.23;11.60;;;;;;;-3.07;79.05;102926.97;10230184;29;20099;-76
2023/02/07 06:33:27;;;;;;;22.02;12.25;;;;;;;-3.09;78.87;102918.19;10240826;28;20052;-76
2023/02/07 06:38:31;;;;;;;24.10;13.43;;;;;;;-3.12;78.51;102932.19;10214381;29;20709;-75
2023/02/07 06:43:34;;;;;;;23.73;11.77;;;;;;;-3.15;78.34;102921.63;10202398;29;20047;-75
2023/02/07 06:48:37;;;;;;;24.30;12.68;;;;;;;-3.11;78.36;102933.94;10199830;29;20578;-76
2023/02/07 06:53:41;;;;;;;22.52;11.73;;;;;;;-3.07;77.85;102938.41;10209193;29;20074;-75
2023/02/07 06:58:44;;;;;;;25.52;12.18;;;;;;;-3.07;77.60;102942.75;10226044;28;20110;-75
2023/02/07 07:03:47;;;;;;;23.27;12.00;;;;;;;-2.93;77.81;102951.78;10217340;29;20130;-76
2023/02/07 07:08:51;;;;;;;22.20;12.73;;;;;;;-2.83;77.50;102953.66;10213072;29;20115;-76
2023/02/07 07:13:54;;;;;;;21.60;12.25;;;;;;;-2.81;77.47;102954.59;10202550;29;20059;-76
2023/02/07 07:18:57;;;;;;;24.02;12.65;;;;;;;-2.66;77.44;102960.94;10201576;28;20563;-75
2023/02/07 07:24:01;;;;;;;22.48;12.38;;;;;;;-2.36;78.30;102953.50;10210295;29;20164;-76
2023/02/07 07:29:04;;;;;;;22.90;13.73;;;;;;;-2.02;77.80;102961.84;10221919;28;20115;-75
2023/02/07 07:34:07;;;;;;;27.77;14.88;;;;;;;-1.72;77.07;102963.97;10219732;29;20056;-77
2023/02/07 07:39:12;;;;;;;28.05;13.48;;;;;;;-1.42;76.74;102951.97;10218239;29;20100;-76
2023/02/07 07:44:14;;;;;;;22.48;13.50;;;;;;;-1.44;75.47;102954.56;10216772;28;20088;-77
2023/02/07 07:49:17;;;;;;;22.35;12.40;;;;;;;-1.26;75.71;102961.78;10202516;28;20507;-77
2023/02/07 07:54:22;;;;;;;22.25;12.35;;;;;;;-0.92;75.74;102954.16;10192304;28;20420;-77
2023/02/07 07:59:24;;;;;;;21.40;12.25;;;;;;;-0.98;73.66;102951.47;10187210;29;21198;-77
2023/02/07 08:04:27;;;;;;;24.02;13.38;;;;;;;-0.49;73.29;102959.75;10197101;28;20039;-78
2023/02/07 08:09:31;;;;;;;21.42;12.52;;;;;;;-0.40;71.09;102954.50;10193197;28;20054;-76
2023/02/07 08:14:34;;;;;;;66.82;32.35;;;;;;;0.24;72.04;102958.31;10209318;28;20047;-77
2023/02/07 08:19:38;;;;;;;16.27;11.02;;;;;;;0.78;68.88;102959.31;10179203;28;20055;-77
2023/02/07 08:24:42;;;;;;;15.55;10.48;;;;;;;1.21;66.64;102956.66;10195965;28;21330;-77
2023/02/07 08:29:45;;;;;;;14.65;9.73;;;;;;;1.34;65.57;102953.09;10198344;28;20084;-78
2023/02/07 08:34:48;;;;;;;14.98;11.20;;;;;;;1.48;64.31;102961.00;10189582;28;20050;-79
2023/02/07 08:39:53;;;;;;;17.25;12.30;;;;;;;1.13;65.00;102967.25;10182637;28;20060;-78
2023/02/07 08:44:56;;;;;;;17.45;11.82;;;;;;;1.11;66.14;102960.19;10186219;28;20430;-78
2023/02/07 08:49:59;;;;;;;19.15;12.60;;;;;;;1.09;64.98;102965.47;10193626;28;20511;-79
2023/02/07 08:55:04;;;;;;;19.65;13.27;;;;;;;1.33;64.95;102958.41;10189382;28;20046;-79
2023/02/07 09:00:08;;;;;;;20.45;13.73;;;;;;;1.72;65.73;102958.28;10182658;28;20051;-77
2023/02/07 09:05:11;;;;;;;20.90;13.95;;;;;;;2.06;64.98;102941.41;10186600;28;20752;-78
2023/02/07 09:10:16;;;;;;;19.42;13.30;;;;;;;1.97;63.24;102930.81;10199303;28;20282;-78
2023/02/07 09:15:19;;;;;;;22.38;13.93;;;;;;;2.48;63.68;102934.09;10193047;28;20404;-78
2023/02/07 09:20:22;;;;;;;23.13;14.50;;;;;;;2.99;62.64;102921.31;10177376;28;20044;-79
2023/02/07 09:25:27;;;;;;;21.92;13.43;;;;;;;2.64;62.34;102919.84;10190402;28;20055;-77
2023/02/07 09:30:30;;;;;;;22.70;14.38;;;;;;;2.90;62.52;102918.75;10195891;28;20047;-77
2023/02/07 09:35:37;;;;;;;24.40;14.40;;;;;;;3.10;62.05;102924.78;10177970;28;20598;-78
2023/02/07 09:40:42;;;;;;;20.27;13.45;;;;;;;3.62;62.45;102928.66;10174465;28;20052;-77
2023/02/07 09:45:52;;;;;;;19.45;13.20;;;;;;;3.56;58.14;102928.72;10187987;28;20060;-78
2023/02/07 09:50:59;;;;;;;21.13;13.48;;;;;;;3.73;60.42;102924.13;10200429;28;20143;-77
2023/02/07 09:56:04;;;;;;;21.48;14.27;;;;;;;4.24;60.06;102928.75;10199623;28;20062;-77
2023/02/07 10:01:12;;;;;;;18.52;13.25;;;;;;;4.51;57.88;102928.34;10182039;28;20051;-77
2023/02/07 10:06:20;;;;;;;19.83;13.85;;;;;;;4.96;58.92;102944.50;10196600;28;20059;-77
2023/02/07 10:11:41;;;;;;;17.77;12.63;;;;;;;4.87;57.85;102943.78;10194280;28;20051;-77
2023/02/07 10:16:55;;;;;;;23.75;13.68;;;;;;;5.26;56.44;102932.44;10191209;28;20079;-77
2023/02/07 10:22:11;;;;;;;25.38;14.75;;;;;;;5.53;55.00;102935.50;10189612;28;20431;-77
2023/02/07 10:27:28;;;;;;;22.80;15.45;;;;;;;5.94;57.24;102928.47;10207673;28;20077;-78
2023/02/07 10:32:35;;;;;;;19.98;14.20;;;;;;;6.24;53.97;102921.56;10202991;28;20065;-78
2023/02/07 10:37:39;;;;;;;20.75;13.50;;;;;;;6.23;51.70;102927.84;10188029;28;20142;-77
2023/02/07 10:42:48;;;;;;;19.88;13.30;;;;;;;6.55;53.66;102934.22;10185212;28;20533;-78
2023/02/07 10:47:50;;;;;;;18.77;14.30;;;;;;;6.91;50.93;102937.84;10183807;28;20055;-78
2023/02/07 10:52:56;;;;;;;20.30;14.02;;;;;;;7.10;53.33;102930.19;10198533;28;20059;-78
2023/02/07 10:58:00;;;;;;;18.58;13.48;;;;;;;7.78;52.25;102923.00;10196522;28;20048;-78
2023/02/07 11:03:19;;;;;;;17.00;12.07;;;;;;;8.37;57.43;102926.56;10185864;28;20471;-78
2023/02/07 11:08:26;;;;;;;16.83;11.82;;;;;;;9.71;46.51;102908.59;10195894;28;20534;-78
2023/02/07 11:13:31;;;;;;;16.60;11.75;;;;;;;10.27;48.58;102910.06;10195728;28;20411;-79
2023/02/07 11:18:40;;;;;;;15.30;11.63;;;;;;;11.16;48.51;102903.69;10192693;28;20062;-78
2023/02/07 11:23:49;;;;;;;16.75;10.98;;;;;;;11.83;45.41;102889.00;10214981;28;21340;-78
2023/02/07 11:29:01;;;;;;;14.98;11.73;;;;;;;11.99;43.28;102891.84;10187585;28;20531;-79
2023/02/07 11:34:10;;;;;;;16.23;12.02;;;;;;;12.30;42.78;102897.53;10199894;28;20099;-78
2023/02/07 11:39:18;;;;;;;12.60;10.32;;;;;;;12.82;43.84;102884.16;10191453;28;20075;-78
2023/02/07 11:44:25;;;;;;;12.55;10.50;;;;;;;12.94;37.75;102892.56;10177711;28;20071;-78
2023/02/07 11:49:42;;;;;;;12.85;10.95;;;;;;;12.41;38.59;102890.75;10184300;28;20399;-78
2023/02/07 11:54:50;;;;;;;12.02;9.90;;;;;;;13.01;36.25;102883.22;10193910;28;21280;-78
2023/02/07 12:00:05;;;;;;;13.60;10.68;;;;;;;13.31;37.02;102885.25;10187251;28;20051;-79
2023/02/07 12:05:22;;;;;;;12.38;10.60;;;;;;;13.63;35.08;102876.34;10181390;28;20043;-79
2023/02/07 12:10:30;;;;;;;13.15;10.43;;;;;;;12.88;35.16;102872.16;10194291;28;20055;-78
2023/02/07 12:15:38;;;;;;;16.05;10.32;;;;;;;12.82;36.07;102861.72;10195004;28;20044;-78
2023/02/07 12:20:49;;;;;;;14.05;11.57;;;;;;;13.16;35.98;102866.19;10190443;28;20047;-78
2023/02/07 12:25:56;;;;;;;14.15;10.50;;;;;;;13.30;35.10;102868.16;10191694;28;20110;-78
2023/02/07 12:31:10;;;;;;;12.02;10.30;;;;;;;14.01;35.97;102857.09;10203267;28;20070;-78
2023/02/07 12:36:20;;;;;;;12.80;10.32;;;;;;;13.66;34.69;102856.38;10194400;28;20060;-78
2023/02/07 12:41:27;;;;;;;13.63;10.00;;;;;;;13.11;34.54;102854.81;10209356;28;20052;-78
2023/02/07 12:46:41;;;;;;;13.93;10.55;;;;;;;11.60;35.15;102853.25;10200368;28;20055;-78
2023/02/07 12:51:54;;;;;;;12.52;9.93;;;;;;;11.62;36.90;102856.72;10191184;28;20068;-78
2023/02/07 12:57:05;;;;;;;14.15;9.65;;;;;;;11.27;37.55;102847.56;10198254;28;20055;-79
2023/02/07 13:02:24;;;;;;;12.32;9.52;;;;;;;11.11;37.08;102842.00;10191779;28;20043;-78
2023/02/07 13:07:39;;;;;;;11.30;8.77;;;;;;;11.27;35.89;102840.41;10194556;28;20166;-78
2023/02/07 13:12:49;;;;;;;12.85;9.57;;;;;;;11.46;36.03;102836.84;10187272;28;20126;-78
2023/02/07 13:18:04;;;;;;;9.73;8.15;;;;;;;11.52;37.63;102839.28;10197168;28;20070;-78
2023/02/07 13:23:15;;;;;;;11.98;9.18;;;;;;;11.41;36.65;102831.69;10199994;28;20127;-78
2023/02/07 13:28:25;;;;;;;11.13;8.05;;;;;;;11.50;36.68;102827.69;10200116;28;20129;-79
2023/02/07 13:33:33;;;;;;;9.40;8.18;;;;;;;11.93;35.85;102831.06;10203607;28;20063;-78
2023/02/07 13:38:48;;;;;;;11.15;8.60;;;;;;;11.94;34.34;102822.91;10214287;28;21556;-78
2023/02/07 13:43:59;;;;;;;12.35;8.25;;;;;;;11.75;34.76;102815.78;10203418;28;20050;-78
2023/02/07 13:49:19;;;;;;;9.38;7.72;;;;;;;10.94;35.14;102812.25;10196123;28;20181;-78
2023/02/07 13:54:34;;;;;;;11.50;8.75;;;;;;;11.11;34.70;102809.72;10194526;28;20167;-78
2023/02/07 13:59:38;;;;;;;10.40;8.70;;;;;;;11.18;34.40;102819.28;10203292;28;20048;-79
2023/02/07 14:04:52;;;;;;;12.18;8.60;;;;;;;10.77;35.83;102818.38;10204384;28;20055;-78
2023/02/07 14:09:57;;;;;;;12.02;9.45;;;;;;;10.54;38.00;102814.00;10195633;28;20815;-78
2023/02/07 14:15:41;;;;;;;18.45;9.55;;;;;;;10.21;36.91;102817.16;10199091;28;20079;-78
2023/02/07 14:20:50;;;;;;;12.40;9.90;;;;;;;9.77;38.93;102814.41;10205972;28;20070;-78
2023/02/07 14:25:53;;;;;;;13.70;10.18;;;;;;;9.76;39.26;102809.97;10235553;28;20063;-78
2023/02/07 14:31:01;;;;;;;15.75;10.32;;;;;;;9.79;38.29;102800.91;10204411;28;20138;-78
2023/02/07 14:36:19;;;;;;;13.00;9.77;;;;;;;9.40;38.10;102809.56;10202266;28;20047;-78
2023/02/07 14:41:28;;;;;;;12.80;9.23;;;;;;;9.68;38.74;102812.97;10193537;28;20115;-78
2023/02/07 14:46:34;;;;;;;12.23;9.50;;;;;;;9.96;37.79;102813.72;10189114;28;20043;-77
2023/02/07 14:51:44;;;;;;;13.70;9.73;;;;;;;9.48;38.35;102804.78;10212741;28;20054;-79
2023/02/07 14:56:59;;;;;;;13.35;9.65;;;;;;;9.26;39.01;102805.59;10195454;28;20133;-79
2023/02/07 15:02:32;;;;;;;13.55;9.93;;;;;;;9.15;39.20;102809.59;10196268;28;20062;-78
2023/02/07 15:07:36;;;;;;;15.93;11.35;;;;;;;8.94;39.06;102811.25;10191643;28;20048;-79
2023/02/07 15:12:42;;;;;;;17.52;10.52;;;;;;;8.69;39.72;102817.47;10200195;28;20059;-78
2023/02/07 15:17:45;;;;;;;17.30;11.82;;;;;;;8.31;40.28;102825.00;10178694;28;20062;-78
2023/02/07 15:22:52;;;;;;;13.98;10.15;;;;;;;8.14;40.89;102816.59;10182382;28;20055;-78
2023/02/07 15:28:01;;;;;;;17.10;11.63;;;;;;;7.99;41.22;102831.38;10197050;28;20074;-78
2023/02/07 15:33:11;;;;;;;14.50;10.10;;;;;;;7.56;41.26;102834.47;10180017;28;20058;-78
2023/02/07 15:38:17;;;;;;;14.25;9.57;;;;;;;7.23;41.76;102835.38;10184365;28;20062;-79
2023/02/07 15:43:29;;;;;;;15.25;10.82;;;;;;;6.98;42.05;102831.66;10170792;28;20048;-79
2023/02/07 15:48:32;;;;;;;13.90;9.87;;;;;;;6.48;42.75;102833.81;10197567;28;20051;-78
2023/02/07 15:53:37;;;;;;;18.58;10.80;;;;;;;6.19;43.58;102838.06;10199400;28;20297;-78
2023/02/07 15:58:40;;;;;;;16.45;9.85;;;;;;;5.71;44.20;102835.59;10201333;28;20051;-78
2023/02/07 16:03:46;;;;;;;17.58;10.80;;;;;;;5.30;44.67;102834.66;10193738;28;20134;-78
2023/02/07 16:08:52;;;;;;;19.52;13.20;;;;;;;4.78;45.30;102844.47;10197913;28;20070;-78
2023/02/07 16:14:01;;;;;;;16.63;11.15;;;;;;;4.44;46.58;102830.84;10192633;28;20047;-78
2023/02/07 16:19:07;;;;;;;18.42;10.02;;;;;;;4.14;46.93;102842.84;10172193;28;20048;-79
2023/02/07 16:24:16;;;;;;;17.25;9.32;;;;;;;3.87;47.40;102836.19;10195669;28;20115;-78
2023/02/07 16:29:21;;;;;;;16.08;10.43;;;;;;;3.73;47.97;102831.94;10195566;28;20165;-78
2023/02/07 16:34:24;;;;;;;20.05;10.52;;;;;;;3.63;48.23;102829.41;10200101;28;20051;-78
2023/02/07 16:39:28;;;;;;;19.23;10.68;;;;;;;3.47;48.71;102828.72;10198229;28;20083;-78
2023/02/07 16:44:34;;;;;;;20.38;12.30;;;;;;;3.39;49.79;102828.81;10187473;28;20056;-78
2023/02/07 16:49:38;;;;;;;27.55;13.73;;;;;;;3.18;50.49;102834.38;10196078;28;20135;-79
2023/02/07 16:54:43;;;;;;;30.38;17.52;;;;;;;2.99;50.97;102831.94;10201408;28;20066;-79
2023/02/07 16:59:46;;;;;;;29.50;14.60;;;;;;;2.93;51.36;102836.41;10224022;28;20075;-79
2023/02/07 17:04:49;;;;;;;28.33;14.70;;;;;;;2.77;51.58;102835.66;10200618;28;20046;-79
2023/02/07 17:09:53;;;;;;;30.02;16.38;;;;;;;2.70;51.98;102840.16;10190104;28;20172;-79
2023/02/07 17:14:56;;;;;;;36.17;18.73;;;;;;;2.69;52.04;102829.53;10187120;28;20063;-80
2023/02/07 17:19:59;;;;;;;52.78;25.48;;;;;;;2.60;52.17;102834.03;10180653;28;20628;-80
2023/02/07 17:25:03;;;;;;;41.85;22.17;;;;;;;2.56;52.00;102840.28;10182253;28;20175;-78
2023/02/07 17:30:15;;;;;;;38.25;20.90;;;;;;;2.45;51.95;102841.25;10202211;28;20055;-77
2023/02/07 17:35:19;;;;;;;43.30;22.40;;;;;;;2.31;52.28;102841.34;10200070;28;20134;-78
2023/02/07 17:40:30;;;;;;;49.20;24.27;;;;;;;2.19;52.62;102839.63;10213387;28;20044;-77
2023/02/07 17:45:36;;;;;;;38.67;21.67;;;;;;;2.14;52.89;102841.47;10213941;28;20067;-78
2023/02/07 17:50:40;;;;;;;44.17;21.73;;;;;;;2.02;52.80;102849.50;10184665;28;20532;-79
2023/02/07 17:55:45;;;;;;;40.67;22.60;;;;;;;1.88;53.47;102844.25;10182522;28;20058;-78
2023/02/07 18:00:48;;;;;;;40.60;22.10;;;;;;;1.89;53.76;102851.31;10178010;28;20047;-78
2023/02/07 18:05:50;;;;;;;36.65;20.35;;;;;;;1.87;54.23;102846.03;10191604;28;20062;-78
2023/02/07 18:10:55;;;;;;;41.53;21.35;;;;;;;1.80;54.05;102846.94;10187564;28;20523;-79
2023/02/07 18:15:57;;;;;;;33.42;18.65;;;;;;;1.69;53.83;102848.78;10193675;28;20180;-79
2023/02/07 18:21:00;;;;;;;28.80;17.30;;;;;;;1.63;53.54;102846.16;10197980;28;21510;-79
2023/02/07 18:26:05;;;;;;;33.45;17.38;;;;;;;1.54;53.53;102843.53;10191278;28;20059;-79
2023/02/07 18:31:09;;;;;;;26.23;16.10;;;;;;;1.55;53.73;102843.53;10200126;28;20130;-78
2023/02/07 18:36:12;;;;;;;32.15;19.08;;;;;;;1.57;54.17;102840.91;10182543;28;20686;-79
2023/02/07 18:41:21;;;;;;;32.13;18.33;;;;;;;1.52;54.57;102838.25;10186333;28;20067;-78
2023/02/07 18:46:25;;;;;;;29.05;15.80;;;;;;;1.48;53.32;102841.78;10196347;28;20134;-79
2023/02/07 18:51:28;;;;;;;25.10;14.93;;;;;;;1.49;52.90;102849.75;10177303;28;20412;-78
2023/02/07 18:56:34;;;;;;;25.88;13.77;;;;;;;1.46;52.25;102839.16;10196376;28;20075;-78
2023/02/07 19:01:37;;;;;;;23.52;14.15;;;;;;;1.43;52.72;102833.00;10204957;28;20047;-78
2023/02/07 19:06:40;;;;;;;28.05;14.77;;;;;;;1.27;52.73;102840.13;10209924;28;20051;-78
2023/02/07 19:11:45;;;;;;;26.67;15.65;;;;;;;1.22;53.40;102839.25;10229400;28;20078;-78
2023/02/07 19:16:48;;;;;;;27.38;15.52;;;;;;;1.15;54.07;102840.13;10202909;28;20051;-78
2023/02/07 19:21:51;;;;;;;29.95;14.55;;;;;;;1.04;54.51;102843.72;10209158;28;20047;-79
2023/02/07 19:26:57;;;;;;;27.52;15.73;;;;;;;0.99;55.10;102840.19;10198710;28;20062;-77
2023/02/07 19:32:03;;;;;;;32.08;20.00;;;;;;;1.01;55.16;102840.16;10199625;28;20051;-78
2023/02/07 19:37:06;;;;;;;28.30;17.85;;;;;;;0.95;55.57;102856.06;10177453;28;21354;-78
2023/02/07 19:42:10;;;;;;;28.17;15.95;;;;;;;0.82;55.84;102858.75;10183607;28;20058;-78
2023/02/07 19:47:13;;;;;;;30.80;17.45;;;;;;;0.88;56.32;102852.56;10195779;28;20055;-79
2023/02/07 19:52:16;;;;;;;32.00;18.58;;;;;;;0.89;56.09;102840.22;10175282;29;20056;-78
2023/02/07 19:57:20;;;;;;;30.98;16.45;;;;;;;0.77;56.64;102846.41;10191025;28;20048;-78
2023/02/07 20:02:23;;;;;;;29.70;15.48;;;;;;;0.75;56.72;102843.75;10176928;28;20188;-78
2023/02/07 20:07:26;;;;;;;25.77;15.45;;;;;;;0.63;57.09;102834.91;10188263;28;20054;-78
2023/02/07 20:12:30;;;;;;;30.17;16.60;;;;;;;0.66;57.57;102840.22;10189430;28;20051;-78
2023/02/07 20:17:35;;;;;;;26.20;16.38;;;;;;;0.64;57.30;102831.41;10177131;29;20171;-78
2023/02/07 20:22:37;;;;;;;27.88;15.23;;;;;;;0.57;57.34;102828.75;10197504;28;20044;-78
2023/02/07 20:27:42;;;;;;;28.05;15.75;;;;;;;0.51;57.47;102819.94;10198630;28;20051;-78
2023/02/07 20:32:44;;;;;;;30.30;15.93;;;;;;;0.42;58.01;102827.88;10199716;28;20044;-78
2023/02/07 20:37:50;;;;;;;28.58;16.35;;;;;;;0.39;58.10;102828.78;10198509;28;20059;-79
2023/02/07 20:42:54;;;;;;;29.25;15.57;;;;;;;0.31;58.26;102828.75;10195883;28;20067;-79
2023/02/07 20:47:57;;;;;;;29.50;16.55;;;;;;;0.28;58.40;102830.53;10190604;28;20692;-79
2023/02/07 20:53:00;;;;;;;30.13;15.85;;;;;;;0.30;58.53;102836.69;10181206;28;20187;-79
2023/02/07 20:58:04;;;;;;;27.98;14.50;;;;;;;0.30;58.52;102829.66;10191923;28;20047;-79
2023/02/07 21:03:07;;;;;;;26.30;14.68;;;;;;;0.22;57.93;102833.16;10184317;28;20055;-79
2023/02/07 21:08:10;;;;;;;25.75;14.00;;;;;;;0.16;58.21;102828.72;10184194;28;20055;-78
2023/02/07 21:13:14;;;;;;;26.80;14.70;;;;;;;0.16;58.46;102828.72;10183440;28;20043;-79
2023/02/07 21:18:17;;;;;;;26.98;14.68;;;;;;;0.08;58.68;102834.03;10169453;28;20056;-78
2023/02/07 21:23:19;;;;;;;25.08;15.75;;;;;;;0.11;58.52;102827.84;10221240;28;20131;-78
2023/02/07 21:28:24;;;;;;;31.23;16.23;;;;;;;0.13;58.49;102834.91;10200600;29;20050;-79
2023/02/07 21:33:26;;;;;;;28.42;16.00;;;;;;;-0.00;58.97;102837.50;10202921;28;20051;-79
2023/02/07 21:38:29;;;;;;;27.88;17.02;;;;;;;-0.09;59.45;102836.63;10223699;28;20051;-80
2023/02/07 21:43:33;;;;;;;34.50;19.05;;;;;;;-0.08;59.66;102845.44;10247028;29;20071;-79
2023/02/07 21:48:38;;;;;;;39.53;18.73;;;;;;;-0.09;59.98;102838.38;10239495;29;20067;-78
2023/02/07 21:53:41;;;;;;;30.45;17.13;;;;;;;-0.11;60.35;102840.13;10222939;29;20047;-80
2023/02/07 21:58:45;;;;;;;28.85;16.20;;;;;;;-0.19;60.14;102844.50;10231577;29;20067;-77
2023/02/07 22:03:50;;;;;;;31.85;16.65;;;;;;;-0.29;60.59;102847.13;10231630;29;20044;-79
2023/02/07 22:08:56;;;;;;;28.52;16.88;;;;;;;-0.28;60.87;102848.88;10227130;28;20052;-79
2023/02/07 22:14:01;;;;;;;27.55;16.23;;;;;;;-0.32;60.67;102847.13;10229703;28;20565;-79
2023/02/07 22:19:05;;;;;;;31.83;15.70;;;;;;;-0.38;61.00;102840.94;10220280;29;20048;-79
2023/02/07 22:24:10;;;;;;;29.30;15.50;;;;;;;-0.41;61.16;102844.47;10225257;29;20090;-79
2023/02/07 22:29:14;;;;;;;30.67;16.90;;;;;;;-0.51;61.30;102838.25;10238746;29;20047;-78
2023/02/07 22:34:17;;;;;;;30.27;16.33;;;;;;;-0.52;61.43;102836.50;10245602;28;20040;-80
2023/02/07 22:39:20;;;;;;;30.50;16.08;;;;;;;-0.59;61.88;102832.03;10239734;29;20043;-79
2023/02/07 22:44:24;;;;;;;29.45;16.27;;;;;;;-0.54;62.03;102837.34;10240962;29;20070;-78
2023/02/07 22:49:27;;;;;;;32.17;15.68;;;;;;;-0.58;61.44;102838.19;10238760;29;20160;-79
2023/02/07 22:54:30;;;;;;;30.02;16.23;;;;;;;-0.63;61.62;102837.28;10239834;29;20141;-79
2023/02/07 22:59:34;;;;;;;30.15;15.82;;;;;;;-0.66;61.80;102834.66;10237706;29;20207;-78
2023/02/07 23:04:39;;;;;;;32.03;16.52;;;;;;;-0.75;62.15;102839.00;10241819;29;20143;-79
2023/02/07 23:09:41;;;;;;;32.95;16.27;;;;;;;-0.71;62.19;102839.94;10235650;28;20074;-78
2023/02/07 23:14:46;;;;;;;29.88;16.40;;;;;;;-0.69;62.00;102834.63;10240692;29;20071;-78